Time;durP1;ratioP1;P1;durP2;ratioP2;P2;SDS_P1;SDS_P2;PMS_P1;PMS_P2;Temp;Humidity;BMP_temperature;BMP_pressure;BME280_temperature;BME280_humidity;BME280_pressure;Samples;Min_cycle;Max_cycle;Signal;HPM_P1;HPM_P2
2022/04/26 03:36:35;;;;;;;25.50;22.80;;;8.60;99.90;;;;;;5073820;28;20254;-74
2022/04/26 03:39:02;;;;;;;25.07;22.37;;;8.60;99.90;;;;;;5055711;28;20655;-74
2022/04/26 03:41:29;;;;;;;27.00;23.43;;;8.60;99.90;;;;;;5073755;28;20251;-73
2022/04/26 03:43:55;;;;;;;24.93;22.27;;;8.60;99.90;;;;;;5073581;28;20197;-74
2022/04/26 03:46:22;;;;;;;26.33;23.53;;;8.60;99.90;;;;;;5073565;28;20201;-74
2022/04/26 03:48:50;;;;;;;25.87;23.07;;;8.60;99.90;;;;;;5074044;28;20200;-74
2022/04/26 03:51:17;;;;;;;29.07;23.00;;;8.60;99.90;;;;;;5073539;28;20607;-75
2022/04/26 03:53:44;;;;;;;25.07;22.47;;;8.60;99.90;;;;;;5073615;28;20599;-74
2022/04/26 03:56:10;;;;;;;27.00;22.63;;;8.60;99.90;;;;;;5073916;28;20680;-74
2022/04/26 03:58:37;;;;;;;28.97;23.57;;;8.60;99.90;;;;;;5073837;28;20201;-74
2022/04/26 04:01:04;;;;;;;25.60;22.47;;;8.60;99.90;;;;;;5076760;28;20229;-75
2022/04/26 04:03:31;;;;;;;24.03;21.43;;;8.50;99.90;;;;;;5074191;28;20208;-74
2022/04/26 04:05:59;;;;;;;25.57;21.57;;;8.60;99.90;;;;;;5073807;28;20247;-75
2022/04/26 04:08:25;;;;;;;26.40;23.07;;;8.60;99.90;;;;;;5073612;28;20664;-75
2022/04/26 04:10:52;;;;;;;25.97;22.70;;;8.60;99.90;;;;;;5073722;28;20243;-74
2022/04/26 04:13:19;;;;;;;25.07;22.20;;;8.60;99.90;;;;;;5073601;28;20201;-74
2022/04/26 04:15:46;;;;;;;23.93;21.33;;;8.60;99.90;;;;;;5073078;28;20549;-74
2022/04/26 04:20:53;;;;;;;24.80;21.20;;;8.70;99.90;;;;;;5072157;28;20205;-74
2022/04/26 04:23:22;;;;;;;25.00;22.30;;;8.70;99.90;;;;;;5073225;28;20718;-74
2022/04/26 04:25:49;;;;;;;26.33;22.27;;;8.70;99.90;;;;;;5073231;28;20233;-74
2022/04/26 04:28:16;;;;;;;25.50;21.27;;;8.70;99.90;;;;;;5073258;28;20209;-74
2022/04/26 04:30:43;;;;;;;24.30;20.80;;;8.70;99.90;;;;;;5073452;28;20197;-74
2022/04/26 04:33:09;;;;;;;24.00;21.43;;;8.70;99.90;;;;;;5073444;28;20197;-75
2022/04/26 04:35:36;;;;;;;25.03;21.50;;;8.70;99.90;;;;;;5073116;28;20192;-75
2022/04/26 04:38:03;;;;;;;26.00;21.60;;;8.80;99.90;;;;;;5073066;28;20224;-75
2022/04/26 04:40:31;;;;;;;22.77;20.37;;;8.80;99.90;;;;;;5073238;28;20250;-75
2022/04/26 04:42:58;;;;;;;26.07;21.87;;;8.80;99.90;;;;;;5073585;28;20254;-75
2022/04/26 04:45:24;;;;;;;23.77;21.13;;;8.80;99.90;;;;;;5073717;28;20230;-75
2022/04/26 04:47:51;;;;;;;23.73;20.80;;;8.80;99.90;;;;;;5074009;28;20201;-75
2022/04/26 04:50:18;;;;;;;27.53;22.37;;;8.80;99.90;;;;;;5073892;28;20251;-75
2022/04/26 04:52:45;;;;;;;25.03;21.63;;;8.80;99.90;;;;;;5073671;28;20197;-75
2022/04/26 04:55:12;;;;;;;25.73;21.27;;;8.90;99.90;;;;;;5073343;28;20211;-75
2022/04/26 04:57:40;;;;;;;25.40;21.53;;;8.90;99.90;;;;;;5073029;28;20221;-75
2022/04/26 05:00:08;;;;;;;23.27;20.27;;;8.90;99.90;;;;;;5073483;28;20201;-75
2022/04/26 05:02:34;;;;;;;25.27;20.80;;;9.00;99.90;;;;;;5072662;28;20229;-75
2022/04/26 05:05:01;;;;;;;24.43;21.60;;;9.00;99.90;;;;;;5072967;28;20201;-74
2022/04/26 05:07:29;;;;;;;26.37;22.60;;;9.00;99.90;;;;;;5073672;28;20197;-74
2022/04/26 05:09:55;;;;;;;25.43;21.80;;;9.00;99.90;;;;;;5076640;28;20572;-74
2022/04/26 05:12:22;;;;;;;25.40;22.60;;;9.00;99.90;;;;;;5076820;28;20660;-75
2022/04/26 05:14:50;;;;;;;26.13;22.47;;;9.00;99.90;;;;;;5077320;28;20240;-75
2022/04/26 05:17:16;;;;;;;27.67;23.73;;;9.00;99.90;;;;;;5076629;28;20271;-75
2022/04/26 05:19:43;;;;;;;25.90;22.77;;;9.00;99.90;;;;;;5076830;28;20267;-75
2022/04/26 05:22:11;;;;;;;28.00;23.37;;;9.00;99.90;;;;;;5076669;28;20197;-74
2022/04/26 05:24:56;;;;;;;26.93;24.07;;;9.00;99.90;;;;;;5076699;28;20262;-75
2022/04/26 05:27:23;;;;;;;27.83;24.30;;;9.00;99.90;;;;;;5076734;28;20201;-75
2022/04/26 05:29:51;;;;;;;29.70;24.57;;;9.10;99.90;;;;;;5076741;28;20197;-75
2022/04/26 05:32:22;;;;;;;27.63;24.63;;;9.10;99.90;;;;;;5076817;28;20201;-74
2022/04/26 05:34:55;;;;;;;28.63;25.53;;;9.20;99.90;;;;;;5076571;28;20201;-75
2022/04/26 05:37:21;;;;;;;27.00;24.10;;;9.20;99.90;;;;;;5076448;28;20228;-75
2022/04/26 05:39:49;;;;;;;29.60;24.33;;;9.20;99.90;;;;;;5077041;28;20231;-75
2022/04/26 05:42:15;;;;;;;32.07;26.30;;;9.30;99.90;;;;;;5076559;28;20292;-75
2022/04/26 05:44:42;;;;;;;30.57;25.70;;;9.20;99.90;;;;;;5076184;28;20197;-75
2022/04/26 05:47:11;;;;;;;27.47;24.47;;;9.00;99.90;;;;;;5076439;28;20243;-75
2022/04/26 05:49:37;;;;;;;25.20;22.50;;;9.00;99.90;;;;;;5076972;28;20262;-75
2022/04/26 05:52:05;;;;;;;27.50;23.50;;;9.00;99.90;;;;;;5076322;28;20197;-76
2022/04/26 05:54:32;;;;;;;23.37;20.67;;;9.00;99.90;;;;;;5058900;28;20265;-75
2022/04/26 05:56:58;;;;;;;24.87;21.73;;;9.00;99.90;;;;;;5069559;28;20217;-74
2022/04/26 05:59:25;;;;;;;26.80;22.97;;;9.00;99.90;;;;;;5075163;28;20259;-74
2022/04/26 06:01:53;;;;;;;25.57;22.03;;;9.00;99.90;;;;;;5075071;28;20282;-74
2022/04/26 06:04:20;;;;;;;25.37;22.10;;;9.00;99.90;;;;;;5075503;28;20648;-75
2022/04/26 06:06:47;;;;;;;27.33;22.00;;;9.00;99.90;;;;;;5076729;28;20263;-72
2022/04/26 06:09:14;;;;;;;27.93;23.07;;;8.90;99.90;;;;;;5076397;28;20192;-75
2022/04/26 06:11:41;;;;;;;25.17;22.03;;;8.80;99.90;;;;;;5076497;28;20296;-75
2022/04/26 06:14:07;;;;;;;25.53;21.93;;;8.90;99.90;;;;;;5075385;28;20205;-75
2022/04/26 06:16:34;;;;;;;26.30;23.27;;;8.90;99.90;;;;;;5075579;28;20204;-74
2022/04/26 06:19:02;;;;;;;29.87;24.47;;;9.00;99.90;;;;;;5075049;28;20648;-74
2022/04/26 06:21:30;;;;;;;28.43;24.67;;;8.90;99.90;;;;;;5075687;28;20200;-74
2022/04/26 06:23:57;;;;;;;31.23;26.77;;;8.80;99.90;;;;;;5075666;28;20208;-73
2022/04/26 06:26:23;;;;;;;31.73;26.63;;;8.80;99.90;;;;;;5075304;28;20201;-74
2022/04/26 06:28:50;;;;;;;34.93;28.10;;;8.70;99.90;;;;;;5059885;28;20197;-73
2022/04/26 06:31:17;;;;;;;40.67;31.83;;;8.70;99.90;;;;;;5085020;28;20197;-75
2022/04/26 06:33:43;;;;;;;42.40;32.37;;;8.70;99.90;;;;;;5082155;28;20251;-74
2022/04/26 06:36:10;;;;;;;44.23;34.70;;;8.70;99.90;;;;;;5077398;28;20652;-76
2022/04/26 06:38:38;;;;;;;46.70;35.33;;;8.70;99.90;;;;;;5072547;28;20244;-75
2022/04/26 06:41:05;;;;;;;49.90;35.20;;;8.70;99.90;;;;;;5077767;28;20201;-74
2022/04/26 06:43:33;;;;;;;51.00;37.20;;;8.70;99.90;;;;;;5070882;28;20205;-73
2022/04/26 06:46:00;;;;;;;51.57;37.03;;;8.70;99.90;;;;;;5080057;28;20683;-74
2022/04/26 06:48:27;;;;;;;51.07;37.53;;;8.70;99.90;;;;;;5058574;28;20244;-74
2022/04/26 06:50:55;;;;;;;52.47;38.93;;;8.70;99.90;;;;;;5062017;28;20205;-75
2022/04/26 06:53:21;;;;;;;51.37;39.13;;;8.70;99.90;;;;;;5063698;28;20198;-77
2022/04/26 06:55:49;;;;;;;66.10;49.13;;;8.70;99.90;;;;;;5064451;28;20201;-75
2022/04/26 06:58:16;;;;;;;55.87;40.13;;;8.70;99.90;;;;;;5059256;28;20226;-75
2022/04/26 07:00:42;;;;;;;54.57;40.30;;;8.70;99.90;;;;;;5067221;28;20619;-75
2022/04/26 07:03:10;;;;;;;51.53;38.47;;;8.70;99.90;;;;;;5057306;28;20295;-75
2022/04/26 07:05:36;;;;;;;50.77;38.77;;;8.70;99.90;;;;;;5055243;28;20569;-75
2022/04/26 07:08:03;;;;;;;55.17;39.67;;;8.70;99.90;;;;;;5054780;28;20649;-78
2022/04/26 07:10:30;;;;;;;53.33;39.83;;;8.80;99.90;;;;;;5056531;28;20208;-74
2022/04/26 07:12:58;;;;;;;52.23;38.83;;;8.90;99.90;;;;;;5055803;28;20197;-75
2022/04/26 07:15:25;;;;;;;52.80;39.03;;;9.00;99.90;;;;;;5055481;28;20778;-74
2022/04/26 07:17:52;;;;;;;46.57;36.50;;;9.00;99.90;;;;;;5055121;28;20270;-75
2022/04/26 07:20:19;;;;;;;49.85;42.10;;;8.90;99.90;;;;;;5054410;28;20899;-74
2022/04/26 07:22:45;;;;;;;44.97;37.17;;;8.90;99.90;;;;;;5054960;28;20194;-75
2022/04/26 07:25:12;;;;;;;46.47;35.70;;;8.80;99.90;;;;;;5054446;28;20606;-73
2022/04/26 07:27:38;;;;;;;45.53;36.37;;;8.70;99.90;;;;;;5053160;28;20255;-74
2022/04/26 07:30:07;;;;;;;46.93;34.97;;;8.60;99.90;;;;;;5051281;28;20310;-74
2022/04/26 07:35:19;;;;;;;29.27;23.53;;;8.50;99.90;;;;;;5053220;28;20320;-74
2022/04/26 07:37:45;;;;;;;31.60;25.13;;;8.40;99.90;;;;;;5053474;28;20611;-75
2022/04/26 07:40:12;;;;;;;22.70;19.27;;;8.40;99.90;;;;;;5053701;28;20197;-73
2022/04/26 07:42:39;;;;;;;20.57;18.37;;;8.30;99.90;;;;;;5053402;28;20197;-74
2022/04/26 07:45:09;;;;;;;22.67;18.13;;;8.20;99.90;;;;;;5053585;28;20655;-74
2022/04/26 07:47:36;;;;;;;20.70;17.37;;;8.20;99.90;;;;;;5053405;28;20293;-74
2022/04/26 07:50:04;;;;;;;18.93;16.93;;;8.40;99.90;;;;;;5053252;28;20186;-73
2022/04/26 07:52:31;;;;;;;19.97;17.60;;;8.50;99.90;;;;;;5066269;28;20549;-75
2022/04/26 07:54:58;;;;;;;17.83;15.93;;;8.60;99.90;;;;;;5073271;28;20204;-73
2022/04/26 07:57:25;;;;;;;17.53;15.67;;;8.50;99.90;;;;;;5073159;28;20221;-74
2022/04/26 07:59:51;;;;;;;18.37;16.00;;;8.60;99.90;;;;;;5073338;28;20201;-74
2022/04/26 08:02:21;;;;;;;16.67;14.90;;;8.70;99.90;;;;;;5073478;28;20592;-74
2022/04/26 08:04:48;;;;;;;18.90;16.87;;;8.70;99.90;;;;;;5073609;28;20243;-74
2022/04/26 08:07:15;;;;;;;17.17;15.37;;;8.70;99.90;;;;;;5075092;28;20262;-75
2022/04/26 08:09:43;;;;;;;16.87;15.17;;;8.70;99.90;;;;;;5075206;28;20197;-74
2022/04/26 08:12:10;;;;;;;17.77;15.83;;;8.70;99.90;;;;;;5074030;28;20193;-74
2022/04/26 08:14:37;;;;;;;16.57;14.87;;;8.80;99.90;;;;;;5073216;28;20202;-74
2022/04/26 08:17:04;;;;;;;15.93;14.33;;;8.80;99.90;;;;;;5072919;28;20198;-75
2022/04/26 08:19:32;;;;;;;15.73;14.03;;;8.80;99.90;;;;;;5061785;28;20520;-75
2022/04/26 08:21:59;;;;;;;14.63;13.13;;;8.70;99.90;;;;;;5053099;28;20194;-74
2022/04/26 08:27:26;;;;;;;14.43;12.93;;;8.70;99.90;;;;;;5052740;28;20200;-74
2022/04/26 08:29:53;;;;;;;13.53;12.13;;;8.70;99.90;;;;;;5052655;28;20208;-75
2022/04/26 08:32:20;;;;;;;14.40;12.50;;;8.90;99.90;;;;;;5053285;28;20205;-73
2022/04/26 08:34:49;;;;;;;14.77;13.10;;;9.00;99.90;;;;;;5052980;28;20198;-74
2022/04/26 08:37:16;;;;;;;14.33;12.83;;;9.10;99.90;;;;;;5053504;28;20202;-74
2022/04/26 08:39:42;;;;;;;12.67;11.37;;;9.20;99.90;;;;;;5053112;28;20194;-74
2022/04/26 08:42:09;;;;;;;10.80;9.80;;;9.30;99.90;;;;;;5055303;28;20549;-73
2022/04/26 08:44:36;;;;;;;9.07;8.27;;;9.30;99.90;;;;;;5056757;28;20713;-74
2022/04/26 08:52:49;;;;;;;9.00;8.13;;;9.90;99.90;;;;;;5057210;28;20267;-74
2022/04/26 08:55:15;;;;;;;9.03;8.23;;;10.30;99.90;;;;;;5056580;28;20205;-74
2022/04/26 08:57:42;;;;;;;8.70;7.90;;;10.80;99.90;;;;;;5056784;28;20271;-74
2022/04/26 09:00:11;;;;;;;8.10;7.40;;;11.00;99.90;;;;;;5055227;28;20205;-74
2022/04/26 09:02:38;;;;;;;6.17;5.63;;;10.90;99.90;;;;;;5055751;28;20561;-75
2022/04/26 09:05:12;;;;;;;6.90;6.23;;;10.60;99.90;;;;;;5058070;28;20232;-75
2022/04/26 09:07:39;;;;;;;6.73;6.13;;;10.60;99.90;;;;;;5057519;28;20718;-75
2022/04/26 09:10:08;;;;;;;6.60;6.00;;;10.70;99.90;;;;;;5057617;28;20225;-75
2022/04/26 09:13:04;;;;;;;7.07;6.37;;;10.70;99.90;;;;;;5056670;28;20565;-75
2022/04/26 09:15:36;;;;;;;6.97;5.97;;;10.90;99.90;;;;;;5057117;28;20228;-75
2022/04/26 09:18:17;;;;;;;6.67;6.07;;;11.00;99.90;;;;;;5057501;28;20225;-75
2022/04/26 09:20:46;;;;;;;6.40;5.77;;;11.10;99.90;;;;;;5057593;28;20201;-76
2022/04/26 09:23:17;;;;;;;5.70;5.20;;;10.80;99.90;;;;;;5057218;28;20193;-75
2022/04/26 09:25:45;;;;;;;6.00;5.10;;;10.70;99.90;;;;;;5057187;28;20291;-75
2022/04/26 09:28:20;;;;;;;6.00;5.17;;;10.80;99.90;;;;;;5056771;28;20251;-74
2022/04/26 09:30:47;;;;;;;5.80;5.30;;;10.70;99.90;;;;;;5056881;28;20223;-74
2022/04/26 09:33:34;;;;;;;5.27;4.80;;;10.70;99.90;;;;;;5056827;28;20679;-75
2022/04/26 09:36:03;;;;;;;5.63;5.13;;;10.80;99.90;;;;;;5057050;28;20202;-75
2022/04/26 09:38:32;;;;;;;5.93;5.40;;;10.80;99.90;;;;;;5056265;28;20287;-74
2022/04/26 09:41:00;;;;;;;5.80;5.30;;;10.60;99.90;;;;;;5056762;28;20197;-75
2022/04/26 09:43:28;;;;;;;6.43;4.90;;;10.40;99.90;;;;;;5056678;28;20281;-76
2022/04/26 09:45:56;;;;;;;7.37;5.20;;;10.30;99.90;;;;;;5038443;28;20202;-76
2022/04/26 09:48:27;;;;;;;4.97;4.57;;;10.20;99.90;;;;;;5056574;28;20608;-76
2022/04/26 09:50:56;;;;;;;5.07;4.57;;;10.30;99.90;;;;;;5056531;28;20224;-75
2022/04/26 09:53:24;;;;;;;4.73;4.33;;;10.20;99.90;;;;;;5055813;28;20197;-75
2022/04/26 09:55:53;;;;;;;4.67;4.23;;;10.20;99.90;;;;;;5056505;28;20210;-75
2022/04/26 09:58:21;;;;;;;4.10;3.73;;;9.90;99.90;;;;;;5056589;28;20218;-75
2022/04/26 10:00:49;;;;;;;4.27;3.87;;;9.60;99.90;;;;;;5056081;28;20712;-75
2022/04/26 10:03:20;;;;;;;5.67;4.93;;;9.50;99.90;;;;;;5056422;28;20731;-75
2022/04/26 10:05:49;;;;;;;5.57;5.07;;;9.50;99.90;;;;;;5056200;28;20205;-74
2022/04/26 10:08:18;;;;;;;6.00;5.37;;;9.30;99.90;;;;;;5056302;28;20213;-76
2022/04/26 10:10:47;;;;;;;6.00;5.40;;;9.30;99.90;;;;;;5055977;28;20204;-75
2022/04/26 10:16:03;;;;;;;7.00;5.60;;;9.40;99.90;;;;;;5055738;28;20239;-75
2022/04/26 10:18:31;;;;;;;6.53;5.93;;;9.40;99.90;;;;;;5055690;28;20235;-75
2022/04/26 10:20:58;;;;;;;6.40;5.80;;;9.50;99.90;;;;;;5056071;28;20459;-75
2022/04/26 10:23:25;;;;;;;5.70;5.20;;;9.40;99.90;;;;;;5055816;28;20255;-76
2022/04/26 10:26:23;;;;;;;7.00;6.30;;;9.40;99.90;;;;;;5055621;28;20653;-76
2022/04/26 10:28:52;;;;;;;6.27;5.60;;;9.50;99.90;;;;;;5055151;28;20233;-76
2022/04/26 10:31:33;;;;;;;7.87;6.03;;;9.60;99.90;;;;;;5055847;28;20197;-76
2022/04/26 10:34:00;;;;;;;6.73;6.13;;;9.90;99.90;;;;;;5055929;28;20198;-76
2022/04/26 10:36:35;;;;;;;6.00;5.40;;;10.10;99.90;;;;;;5055615;28;20201;-76
2022/04/26 10:39:24;;;;;;;6.30;5.70;;;10.30;99.90;;;;;;5055827;28;20221;-76
2022/04/26 10:41:53;;;;;;;5.37;4.97;;;10.20;99.90;;;;;;5055949;28;20203;-76
2022/04/26 10:44:30;;;;;;;6.17;5.10;;;10.20;99.90;;;;;;5037561;28;20201;-77
2022/04/26 10:47:29;;;;;;;6.10;5.50;;;10.30;99.90;;;;;;5055517;28;20604;-77
2022/04/26 10:49:58;;;;;;;4.30;3.90;;;10.50;99.90;;;;;;5055738;28;20206;-77
2022/04/26 10:52:47;;;;;;;4.57;4.17;;;10.20;99.90;;;;;;5055701;28;20224;-77
2022/04/26 10:55:20;;;;;;;5.70;5.10;;;10.00;99.90;;;;;;5055615;28;20673;-78
2022/04/26 10:57:51;;;;;;;5.47;4.97;;;9.90;99.90;;;;;;5056773;28;20292;-79
2022/04/26 11:00:21;;;;;;;7.23;6.53;;;10.10;99.90;;;;;;5064192;28;20271;-78
2022/04/26 11:02:50;;;;;;;6.80;6.10;;;10.30;99.90;;;;;;5064253;28;20201;-79
2022/04/26 11:05:18;;;;;;;6.57;5.93;;;10.10;99.90;;;;;;5062596;28;20198;-79
2022/04/26 11:07:46;;;;;;;5.97;5.37;;;10.10;99.90;;;;;;5064064;28;20201;-79
2022/04/26 11:10:15;;;;;;;6.70;5.97;;;10.30;99.90;;;;;;5062791;28;20201;-79
2022/04/26 11:12:42;;;;;;;5.40;4.90;;;10.30;99.90;;;;;;5061937;28;20267;-78
2022/04/26 11:15:12;;;;;;;7.53;6.13;;;10.20;99.90;;;;;;5058169;28;20205;-80
2022/04/26 11:17:39;;;;;;;5.53;5.03;;;10.60;99.90;;;;;;5065111;28;20206;-79
2022/04/26 11:20:10;;;;;;;7.60;6.13;;;10.50;99.90;;;;;;5066478;28;20229;-79
2022/04/26 11:22:44;;;;;;;7.27;5.63;;;10.70;99.90;;;;;;5066522;28;20197;-78
2022/04/26 11:28:04;;;;;;;4.93;4.53;;;10.90;99.90;;;;;;5066517;28;20734;-79
2022/04/26 11:30:35;;;;;;;4.10;3.80;;;10.80;99.90;;;;;;5066719;28;20200;-79
2022/04/26 11:33:04;;;;;;;9.10;6.57;;;10.80;99.90;;;;;;5066252;28;20198;-79
2022/04/26 11:35:34;;;;;;;12.00;8.83;;;11.00;99.90;;;;;;5063644;28;20201;-78
2022/04/26 11:38:04;;;;;;;4.13;3.77;;;11.40;99.90;;;;;;5062885;28;20220;-79
2022/04/26 11:40:34;;;;;;;4.40;4.00;;;11.90;99.90;;;;;;5065352;28;20251;-79
2022/04/26 11:43:08;;;;;;;4.47;3.67;;;12.00;99.90;;;;;;5064714;28;20653;-79
2022/04/26 11:45:37;;;;;;;4.93;3.27;;;11.80;99.90;;;;;;5063428;28;20247;-79
2022/04/26 11:48:09;;;;;;;4.13;3.80;;;11.90;99.90;;;;;;5064839;28;20204;-80
2022/04/26 11:50:35;;;;;;;4.70;3.80;;;12.10;99.90;;;;;;5064947;28;20216;-78
2022/04/26 11:53:04;;;;;;;4.50;3.50;;;11.80;99.90;;;;;;5064032;28;20198;-79
2022/04/26 11:55:32;;;;;;;3.63;3.30;;;11.80;99.90;;;;;;5065594;28;20271;-79
2022/04/26 11:58:10;;;;;;;4.23;3.70;;;11.40;99.90;;;;;;5064964;28;20743;-78
2022/04/26 12:00:53;;;;;;;3.50;3.20;;;11.40;99.90;;;;;;5065455;28;20290;-79
2022/04/26 12:03:21;;;;;;;3.10;2.80;;;11.10;99.90;;;;;;5067888;28;20255;-79
2022/04/26 12:05:53;;;;;;;5.33;3.87;;;10.70;99.90;;;;;;5065194;28;20201;-78
2022/04/26 12:08:21;;;;;;;3.83;3.53;;;10.60;99.90;;;;;;5065279;28;20201;-79
2022/04/26 12:10:47;;;;;;;3.83;3.53;;;10.40;99.90;;;;;;5062786;28;20204;-79
2022/04/26 12:13:14;;;;;;;5.43;3.80;;;10.30;99.90;;;;;;5068299;28;20202;-78
2022/04/26 12:15:43;;;;;;;4.10;3.70;;;10.40;99.90;;;;;;5068375;28;20227;-79
2022/04/26 12:18:14;;;;;;;4.00;3.70;;;10.60;99.90;;;;;;5068617;28;20325;-78
2022/04/26 12:20:57;;;;;;;3.83;3.53;;;10.90;99.90;;;;;;5069327;28;20201;-78
2022/04/26 12:23:24;;;;;;;5.17;3.63;;;10.80;99.90;;;;;;5069344;28;20201;-79
2022/04/26 12:25:57;;;;;;;3.70;3.40;;;11.10;99.90;;;;;;5068361;28;20674;-79
2022/04/26 12:28:25;;;;;;;3.93;3.53;;;11.40;99.90;;;;;;5067001;28;20248;-79
2022/04/26 12:30:53;;;;;;;5.90;3.67;;;11.60;99.90;;;;;;5065557;28;20232;-79
2022/04/26 12:33:31;;;;;;;3.90;3.60;;;11.80;99.90;;;;;;5065741;28;20206;-79
2022/04/26 12:36:05;;;;;;;4.00;3.60;;;11.90;99.90;;;;;;5063392;28;20219;-79
2022/04/26 12:38:45;;;;;;;3.93;3.40;;;12.20;99.90;;;;;;5061244;28;20197;-78
2022/04/26 12:41:12;;;;;;;4.23;3.70;;;12.30;99.90;;;;;;5063597;28;20205;-79
2022/04/26 12:43:39;;;;;;;3.47;3.17;;;11.80;99.90;;;;;;5066875;28;20197;-78
2022/04/26 12:46:07;;;;;;;4.43;4.00;;;11.40;99.90;;;;;;5067781;28;20727;-79
2022/04/26 12:51:21;;;;;;;6.40;4.47;;;11.70;99.90;;;;;;5054886;28;20197;-78
2022/04/26 12:53:50;;;;;;;5.40;4.77;;;12.00;99.90;;;;;;5059314;28;20327;-79
2022/04/26 12:56:17;;;;;;;4.60;4.20;;;12.00;99.90;;;;;;5060009;28;20236;-78
2022/04/26 12:58:45;;;;;;;4.47;4.07;;;12.30;99.90;;;;;;5060280;28;20217;-78
2022/04/26 13:01:14;;;;;;;9.67;7.87;;;12.20;99.90;;;;;;5060439;28;20288;-78
2022/04/26 13:03:42;;;;;;;7.73;7.03;;;12.40;99.90;;;;;;5060972;28;20201;-80
2022/04/26 13:06:11;;;;;;;5.70;4.80;;;12.80;99.90;;;;;;5058197;28;20271;-78
2022/04/26 13:08:38;;;;;;;9.37;8.53;;;12.60;99.90;;;;;;5052980;28;20194;-79
2022/04/26 13:11:06;;;;;;;5.83;4.70;;;12.80;99.90;;;;;;5053560;28;20201;-79
2022/04/26 13:13:34;;;;;;;5.60;5.10;;;12.40;99.90;;;;;;5053562;28;20202;-78
2022/04/26 13:16:01;;;;;;;5.50;5.00;;;12.40;99.90;;;;;;5053367;28;20595;-78
2022/04/26 13:18:30;;;;;;;6.60;5.30;;;12.70;99.90;;;;;;5053277;28;20232;-78
2022/04/26 13:20:57;;;;;;;6.87;5.40;;;12.40;99.90;;;;;;5053095;28;20206;-79
2022/04/26 13:23:24;;;;;;;5.37;4.87;;;12.60;99.90;;;;;;5053810;28;20289;-77
2022/04/26 13:25:52;;;;;;;5.77;5.27;;;12.70;99.90;;;;;;5054479;28;20194;-78
2022/04/26 13:28:19;;;;;;;5.43;4.93;;;13.30;99.90;;;;;;5054670;28;20194;-78
2022/04/26 13:30:46;;;;;;;6.17;5.33;;;14.20;99.90;;;;;;5057984;28;20228;-79
2022/04/26 13:33:13;;;;;;;5.70;5.10;;;14.50;99.90;;;;;;5056838;28;20275;-80
2022/04/26 13:35:41;;;;;;;6.33;5.70;;;14.80;99.90;;;;;;5056644;28;20205;-80
2022/04/26 13:38:09;;;;;;;6.30;4.97;;;14.70;99.90;;;;;;5057495;28;20252;-79
2022/04/26 13:40:37;;;;;;;5.70;5.20;;;14.30;99.90;;;;;;5056944;28;20229;-80
2022/04/26 13:43:04;;;;;;;6.13;5.53;;;14.30;99.90;;;;;;5058656;28;20200;-79
2022/04/26 13:45:32;;;;;;;6.43;5.63;;;13.90;99.90;;;;;;5058700;28;20244;-79
2022/04/26 13:47:59;;;;;;;6.57;5.87;;;14.20;99.90;;;;;;5058934;28;20201;-79
2022/04/26 13:50:26;;;;;;;6.37;5.70;;;13.80;99.90;;;;;;5061214;28;20201;-78
2022/04/26 13:52:54;;;;;;;8.60;5.70;;;14.30;99.90;;;;;;5056882;28;20202;-79
2022/04/26 13:55:20;;;;;;;6.60;5.87;;;14.30;99.90;;;;;;5056534;28;20255;-79
2022/04/26 13:57:47;;;;;;;6.50;5.90;;;14.20;99.90;;;;;;5055622;28;20649;-80
2022/04/26 14:00:16;;;;;;;6.10;5.60;;;13.60;99.90;;;;;;5055631;28;20235;-78
2022/04/26 14:02:46;;;;;;;9.00;6.47;;;13.40;99.90;;;;;;5056171;28;20646;-80
2022/04/26 14:05:13;;;;;;;7.80;6.03;;;13.00;99.90;;;;;;5056150;28;20205;-78
2022/04/26 14:07:40;;;;;;;7.10;6.30;;;12.70;99.90;;;;;;5055858;28;20194;-77
2022/04/26 14:10:08;;;;;;;9.03;6.20;;;12.50;99.90;;;;;;5057018;28;20271;-77
2022/04/26 14:12:35;;;;;;;6.20;5.60;;;12.50;99.90;;;;;;5056794;28;20208;-78
2022/04/26 14:23:15;;;;;;;7.03;5.50;;;13.20;99.90;;;;;;5055820;28;20203;-79
2022/04/26 14:25:43;;;;;;;6.10;5.50;;;13.50;99.90;;;;;;5056528;28;20198;-79
2022/04/26 14:28:09;;;;;;;7.13;5.80;;;13.40;99.90;;;;;;5056549;28;20204;-79
2022/04/26 14:30:36;;;;;;;8.03;5.93;;;13.50;99.90;;;;;;5055572;28;20255;-78
2022/04/26 14:33:03;;;;;;;6.73;5.63;;;13.20;99.90;;;;;;5056341;28;20272;-78
2022/04/26 14:35:32;;;;;;;7.00;6.40;;;12.80;99.90;;;;;;5056641;28;20202;-78
2022/04/26 14:37:58;;;;;;;7.53;6.67;;;11.30;99.90;;;;;;5056190;28;20210;-74
2022/04/26 14:40:25;;;;;;;8.50;6.70;;;8.60;99.90;;;;;;5055227;28;20299;-71
2022/04/26 14:42:54;;;;;;;7.10;6.10;;;7.50;99.90;;;;;;5055430;28;20254;-71
2022/04/26 14:45:21;;;;;;;8.70;6.03;;;7.10;99.90;;;;;;5055093;28;20561;-71
2022/04/26 14:47:48;;;;;;;7.70;6.83;;;7.00;99.90;;;;;;5055990;28;20224;-71
2022/04/26 14:50:17;;;;;;;7.93;6.90;;;7.20;99.90;;;;;;5055372;28;20202;-71
2022/04/26 14:52:43;;;;;;;8.50;7.60;;;7.60;99.90;;;;;;5054915;28;20208;-71
2022/04/26 14:55:10;;;;;;;7.87;7.07;;;7.90;99.90;;;;;;5054721;28;20206;-71
2022/04/26 14:57:37;;;;;;;8.23;7.43;;;8.10;99.90;;;;;;5054904;28;20201;-72
2022/04/26 15:00:08;;;;;;;7.40;6.70;;;8.50;99.90;;;;;;5054905;28;20276;-72
2022/04/26 15:02:38;;;;;;;9.37;8.23;;;9.00;99.90;;;;;;5054523;28;20228;-72
2022/04/26 15:05:08;;;;;;;7.97;7.00;;;9.90;99.90;;;;;;5054612;28;20198;-72
2022/04/26 15:09:42;;;;;;;8.10;6.03;;;10.80;99.90;;;;;;5054393;28;20281;-72
2022/04/26 15:10:24;;;;;;;5.93;5.33;;;11.90;99.90;;;;;;5054373;28;20194;-72
2022/04/26 15:18:21;;;;;;;5.77;5.27;;;15.00;99.90;;;;;;5054322;28;20216;-73
2022/04/26 15:20:52;;;;;;;6.23;5.70;;;14.10;99.90;;;;;;5054448;28;20577;-73
2022/04/26 15:23:19;;;;;;;6.70;6.00;;;14.00;99.90;;;;;;5054429;28;20248;-73
2022/04/26 15:25:50;;;;;;;9.55;6.53;;;15.30;99.90;;;;;;5054399;28;20285;-73
2022/04/26 15:28:17;;;;;;;8.20;6.20;;;16.90;99.90;;;;;;5053640;28;20236;-73
2022/04/26 15:30:46;;;;;;;5.95;5.45;;;18.90;99.90;;;;;;5053420;28;20252;-74
2022/04/26 15:33:12;;;;;;;5.78;5.28;;;20.40;99.90;;;;;;5053459;28;20215;-72
2022/04/26 15:35:39;;;;;;;5.60;5.00;;;20.40;97.50;;;;;;5053298;28;20657;-74
2022/04/26 15:38:07;;;;;;;5.05;4.65;;;20.70;93.80;;;;;;5053349;28;20262;-75
2022/04/26 15:40:34;;;;;;;5.47;5.05;;;20.30;88.50;;;;;;5053514;28;20257;-75
2022/04/26 15:43:01;;;;;;;5.45;5.00;;;19.70;87.30;;;;;;5054013;28;20202;-76
2022/04/26 15:45:27;;;;;;;5.20;4.80;;;19.60;91.90;;;;;;5053827;28;20600;-78
2022/04/26 15:47:55;;;;;;;5.88;4.88;;;19.90;84.40;;;;;;5053373;28;20197;-75
2022/04/26 15:50:22;;;;;;;5.95;5.45;;;19.80;78.00;;;;;;5054514;28;20193;-76
2022/04/26 15:52:50;;;;;;;5.78;5.28;;;18.50;82.00;;;;;;5050130;28;20612;-77
2022/04/26 15:55:17;;;;;;;5.55;5.13;;;17.80;89.80;;;;;;5052829;28;20558;-77
2022/04/26 15:57:44;;;;;;;6.70;5.85;;;16.00;97.40;;;;;;5053532;28;20664;-77
2022/04/26 16:00:12;;;;;;;6.50;5.90;;;14.30;99.90;;;;;;5054639;28;20232;-76
2022/04/26 16:02:39;;;;;;;7.97;6.70;;;13.60;99.90;;;;;;5054232;28;20645;-76
2022/04/26 16:05:07;;;;;;;6.87;6.17;;;13.10;99.90;;;;;;5071141;28;20197;-77
2022/04/26 16:07:34;;;;;;;7.03;6.33;;;12.80;99.90;;;;;;5073888;28;20197;-77
2022/04/26 16:21:00;;;;;;;7.50;6.67;;;11.40;99.90;;;;;;5073640;28;20246;-77
2022/04/26 16:23:27;;;;;;;7.17;6.40;;;11.30;99.90;;;;;;5062216;28;20201;-76
2022/04/26 16:25:54;;;;;;;5.93;5.43;;;11.20;99.90;;;;;;5053702;28;20244;-77
2022/04/26 16:28:21;;;;;;;4.67;4.27;;;11.10;99.90;;;;;;5053184;28;20656;-77
2022/04/26 16:30:47;;;;;;;5.00;4.37;;;10.90;99.90;;;;;;5053759;28;20259;-76
2022/04/26 16:33:15;;;;;;;4.53;4.13;;;10.70;99.90;;;;;;5053903;28;20251;-75
2022/04/26 16:35:41;;;;;;;4.77;4.27;;;10.70;99.90;;;;;;5054685;28;20204;-76
2022/04/26 16:38:10;;;;;;;4.30;3.90;;;10.80;99.90;;;;;;5053918;28;20201;-76
2022/04/26 16:40:37;;;;;;;4.20;3.90;;;10.90;99.90;;;;;;5053897;28;20245;-76
2022/04/26 16:43:04;;;;;;;3.50;3.20;;;11.20;99.90;;;;;;5053617;28;20556;-77
2022/04/26 16:45:30;;;;;;;3.37;3.07;;;13.00;99.90;;;;;;5052587;28;20201;-76
2022/04/26 16:47:57;;;;;;;4.10;3.63;;;12.50;99.90;;;;;;5054023;28;20209;-76
2022/04/26 16:50:24;;;;;;;10.20;3.40;;;12.70;99.90;;;;;;5053753;28;20197;-77
2022/04/26 16:52:52;;;;;;;4.50;3.30;;;12.20;99.90;;;;;;5053427;28;20566;-78
2022/04/26 16:55:21;;;;;;;4.43;3.47;;;12.00;99.90;;;;;;5052934;28;20243;-78
2022/04/26 16:57:48;;;;;;;3.20;2.90;;;11.60;99.90;;;;;;5053433;28;20202;-79
2022/04/26 17:00:16;;;;;;;4.13;3.70;;;11.40;99.90;;;;;;5052930;28;20218;-76
2022/04/26 17:02:42;;;;;;;4.10;3.70;;;11.20;99.90;;;;;;5055478;28;20208;-76
2022/04/26 17:05:11;;;;;;;3.80;3.40;;;11.30;99.90;;;;;;5059916;28;20198;-77
2022/04/26 17:07:38;;;;;;;4.43;3.23;;;11.50;99.90;;;;;;5056522;28;20679;-76
2022/04/26 17:10:06;;;;;;;3.83;3.43;;;11.60;99.90;;;;;;5058390;28;20711;-76
2022/04/26 17:12:34;;;;;;;4.00;2.90;;;13.60;99.90;;;;;;5059246;28;20255;-76